sensor_id;sensor_type;location;lat;lon;timestamp;P1;durP1;ratioP1;P2;durP2;ratioP2
38226;SDS011;24026;49.446;8.576;2023-06-22T00:02:03;164.15;;;150.55;;
38226;SDS011;24026;49.446;8.576;2023-06-22T00:04:23;166.25;;;152.60;;
38226;SDS011;24026;49.446;8.576;2023-06-22T00:06:44;166.10;;;152.50;;
38226;SDS011;24026;49.446;8.576;2023-06-22T00:09:04;164.85;;;151.38;;
38226;SDS011;24026;49.446;8.576;2023-06-22T00:11:26;163.82;;;150.35;;
38226;SDS011;24026;49.446;8.576;2023-06-22T00:13:47;163.93;;;150.50;;
38226;SDS011;24026;49.446;8.576;2023-06-22T00:16:08;164.57;;;151.18;;
38226;SDS011;24026;49.446;8.576;2023-06-22T00:18:29;163.75;;;150.30;;
38226;SDS011;24026;49.446;8.576;2023-06-22T00:20:50;164.18;;;150.68;;
38226;SDS011;24026;49.446;8.576;2023-06-22T00:23:16;163.32;;;149.95;;
38226;SDS011;24026;49.446;8.576;2023-06-22T00:25:38;167.07;;;153.40;;
38226;SDS011;24026;49.446;8.576;2023-06-22T00:28:02;163.20;;;149.73;;
38226;SDS011;24026;49.446;8.576;2023-06-22T00:30:23;168.98;;;155.27;;
38226;SDS011;24026;49.446;8.576;2023-06-22T00:32:44;163.82;;;150.32;;
38226;SDS011;24026;49.446;8.576;2023-06-22T00:35:05;163.63;;;150.20;;
38226;SDS011;24026;49.446;8.576;2023-06-22T00:37:25;164.90;;;151.48;;
38226;SDS011;24026;49.446;8.576;2023-06-22T00:39:49;165.20;;;151.70;;
38226;SDS011;24026;49.446;8.576;2023-06-22T00:42:09;163.32;;;149.88;;
38226;SDS011;24026;49.446;8.576;2023-06-22T00:44:30;158.98;;;145.63;;
38226;SDS011;24026;49.446;8.576;2023-06-22T00:46:54;163.32;;;149.82;;
38226;SDS011;24026;49.446;8.576;2023-06-22T00:49:14;162.18;;;148.77;;
38226;SDS011;24026;49.446;8.576;2023-06-22T00:51:34;163.20;;;149.55;;
38226;SDS011;24026;49.446;8.576;2023-06-22T00:53:58;162.00;;;148.50;;
38226;SDS011;24026;49.446;8.576;2023-06-22T00:56:18;161.25;;;147.60;;
38226;SDS011;24026;49.446;8.576;2023-06-22T00:58:39;161.27;;;147.63;;
38226;SDS011;24026;49.446;8.576;2023-06-22T01:01:01;159.77;;;146.38;;
38226;SDS011;24026;49.446;8.576;2023-06-22T01:03:22;160.10;;;146.90;;
38226;SDS011;24026;49.446;8.576;2023-06-22T01:05:42;160.57;;;147.23;;
38226;SDS011;24026;49.446;8.576;2023-06-22T01:11:14;162.45;;;148.93;;
38226;SDS011;24026;49.446;8.576;2023-06-22T01:16:11;159.70;;;146.30;;
38226;SDS011;24026;49.446;8.576;2023-06-22T01:18:38;159.60;;;146.20;;
38226;SDS011;24026;49.446;8.576;2023-06-22T01:21:01;159.63;;;146.35;;
38226;SDS011;24026;49.446;8.576;2023-06-22T01:28:55;161.48;;;147.90;;
38226;SDS011;24026;49.446;8.576;2023-06-22T01:31:18;160.85;;;147.43;;
38226;SDS011;24026;49.446;8.576;2023-06-22T01:33:41;159.15;;;145.82;;
38226;SDS011;24026;49.446;8.576;2023-06-22T01:36:02;160.60;;;147.15;;
38226;SDS011;24026;49.446;8.576;2023-06-22T01:38:24;162.43;;;148.95;;
38226;SDS011;24026;49.446;8.576;2023-06-22T01:40:48;161.60;;;148.07;;
38226;SDS011;24026;49.446;8.576;2023-06-22T01:43:11;161.30;;;147.63;;
38226;SDS011;24026;49.446;8.576;2023-06-22T01:45:31;159.68;;;146.25;;
38226;SDS011;24026;49.446;8.576;2023-06-22T01:47:52;160.93;;;147.40;;
38226;SDS011;24026;49.446;8.576;2023-06-22T01:50:12;162.75;;;149.25;;
38226;SDS011;24026;49.446;8.576;2023-06-22T01:52:33;159.80;;;146.35;;
38226;SDS011;24026;49.446;8.576;2023-06-22T01:54:54;163.13;;;149.52;;
38226;SDS011;24026;49.446;8.576;2023-06-22T01:57:14;159.40;;;146.13;;
38226;SDS011;24026;49.446;8.576;2023-06-22T01:59:36;163.07;;;149.20;;
38226;SDS011;24026;49.446;8.576;2023-06-22T02:02:06;160.18;;;146.70;;
38226;SDS011;24026;49.446;8.576;2023-06-22T02:04:33;161.23;;;147.75;;
38226;SDS011;24026;49.446;8.576;2023-06-22T02:06:59;160.48;;;147.10;;
38226;SDS011;24026;49.446;8.576;2023-06-22T02:09:24;160.60;;;147.18;;
38226;SDS011;24026;49.446;8.576;2023-06-22T02:11:49;161.60;;;148.10;;
38226;SDS011;24026;49.446;8.576;2023-06-22T02:14:14;161.05;;;147.43;;
38226;SDS011;24026;49.446;8.576;2023-06-22T02:16:36;162.05;;;148.60;;
38226;SDS011;24026;49.446;8.576;2023-06-22T02:18:57;163.18;;;149.68;;
38226;SDS011;24026;49.446;8.576;2023-06-22T02:21:23;163.20;;;149.63;;
38226;SDS011;24026;49.446;8.576;2023-06-22T02:23:43;161.43;;;148.05;;
38226;SDS011;24026;49.446;8.576;2023-06-22T02:26:04;161.95;;;148.35;;
38226;SDS011;24026;49.446;8.576;2023-06-22T02:28:26;162.82;;;149.20;;
38226;SDS011;24026;49.446;8.576;2023-06-22T02:30:47;161.23;;;147.82;;
38226;SDS011;24026;49.446;8.576;2023-06-22T02:33:07;162.32;;;148.82;;
38226;SDS011;24026;49.446;8.576;2023-06-22T02:35:28;161.52;;;148.13;;
38226;SDS011;24026;49.446;8.576;2023-06-22T02:37:51;160.43;;;147.03;;
38226;SDS011;24026;49.446;8.576;2023-06-22T02:40:12;161.27;;;147.85;;
38226;SDS011;24026;49.446;8.576;2023-06-22T02:42:32;159.30;;;146.00;;
38226;SDS011;24026;49.446;8.576;2023-06-22T02:44:53;163.05;;;149.32;;
38226;SDS011;24026;49.446;8.576;2023-06-22T02:47:13;159.88;;;146.38;;
38226;SDS011;24026;49.446;8.576;2023-06-22T02:49:34;165.18;;;151.50;;
38226;SDS011;24026;49.446;8.576;2023-06-22T02:51:55;162.88;;;149.27;;
38226;SDS011;24026;49.446;8.576;2023-06-22T02:54:15;160.93;;;147.60;;
38226;SDS011;24026;49.446;8.576;2023-06-22T02:56:36;161.13;;;147.70;;
38226;SDS011;24026;49.446;8.576;2023-06-22T02:58:56;161.40;;;147.82;;
38226;SDS011;24026;49.446;8.576;2023-06-22T03:01:21;160.77;;;147.27;;
38226;SDS011;24026;49.446;8.576;2023-06-22T03:03:44;161.25;;;147.65;;
38226;SDS011;24026;49.446;8.576;2023-06-22T03:06:04;160.25;;;146.90;;
38226;SDS011;24026;49.446;8.576;2023-06-22T03:08:24;160.18;;;146.77;;
38226;SDS011;24026;49.446;8.576;2023-06-22T03:10:45;162.48;;;148.98;;
38226;SDS011;24026;49.446;8.576;2023-06-22T03:13:05;163.32;;;149.68;;
38226;SDS011;24026;49.446;8.576;2023-06-22T03:15:25;161.05;;;147.57;;
38226;SDS011;24026;49.446;8.576;2023-06-22T03:17:49;163.57;;;149.90;;
38226;SDS011;24026;49.446;8.576;2023-06-22T03:20:09;165.10;;;151.48;;
38226;SDS011;24026;49.446;8.576;2023-06-22T03:22:31;162.23;;;148.57;;
38226;SDS011;24026;49.446;8.576;2023-06-22T03:24:52;159.65;;;146.30;;
38226;SDS011;24026;49.446;8.576;2023-06-22T03:27:12;161.30;;;147.82;;
38226;SDS011;24026;49.446;8.576;2023-06-22T03:29:33;163.05;;;149.35;;
38226;SDS011;24026;49.446;8.576;2023-06-22T03:31:54;161.52;;;148.15;;
38226;SDS011;24026;49.446;8.576;2023-06-22T03:34:14;161.05;;;147.60;;
38226;SDS011;24026;49.446;8.576;2023-06-22T03:36:34;160.25;;;146.75;;
38226;SDS011;24026;49.446;8.576;2023-06-22T03:38:55;160.30;;;146.93;;
38226;SDS011;24026;49.446;8.576;2023-06-22T03:41:15;160.88;;;147.45;;
38226;SDS011;24026;49.446;8.576;2023-06-22T03:43:36;161.48;;;147.95;;
38226;SDS011;24026;49.446;8.576;2023-06-22T03:45:56;161.63;;;148.13;;
38226;SDS011;24026;49.446;8.576;2023-06-22T03:48:16;160.30;;;146.88;;
38226;SDS011;24026;49.446;8.576;2023-06-22T03:50:37;161.38;;;147.88;;
38226;SDS011;24026;49.446;8.576;2023-06-22T03:52:57;160.38;;;146.93;;
38226;SDS011;24026;49.446;8.576;2023-06-22T03:55:19;159.77;;;146.45;;
38226;SDS011;24026;49.446;8.576;2023-06-22T03:57:40;161.68;;;148.23;;
38226;SDS011;24026;49.446;8.576;2023-06-22T04:00:00;161.13;;;147.63;;
38226;SDS011;24026;49.446;8.576;2023-06-22T04:02:21;161.38;;;147.77;;
38226;SDS011;24026;49.446;8.576;2023-06-22T04:04:41;165.55;;;151.88;;
38226;SDS011;24026;49.446;8.576;2023-06-22T04:07:01;162.52;;;148.88;;
38226;SDS011;24026;49.446;8.576;2023-06-22T04:09:22;160.75;;;147.35;;
38226;SDS011;24026;49.446;8.576;2023-06-22T04:11:42;160.38;;;146.88;;
38226;SDS011;24026;49.446;8.576;2023-06-22T04:14:03;161.60;;;148.13;;
38226;SDS011;24026;49.446;8.576;2023-06-22T04:16:23;161.85;;;148.40;;
38226;SDS011;24026;49.446;8.576;2023-06-22T04:18:43;162.38;;;148.60;;
38226;SDS011;24026;49.446;8.576;2023-06-22T04:21:04;163.60;;;149.77;;
38226;SDS011;24026;49.446;8.576;2023-06-22T04:23:24;160.07;;;146.70;;
38226;SDS011;24026;49.446;8.576;2023-06-22T04:25:44;163.10;;;149.20;;
38226;SDS011;24026;49.446;8.576;2023-06-22T04:28:05;163.73;;;150.02;;
38226;SDS011;24026;49.446;8.576;2023-06-22T04:30:26;162.18;;;148.70;;
38226;SDS011;24026;49.446;8.576;2023-06-22T04:32:47;163.60;;;149.90;;
38226;SDS011;24026;49.446;8.576;2023-06-22T04:35:17;162.20;;;148.65;;
38226;SDS011;24026;49.446;8.576;2023-06-22T04:37:38;161.52;;;148.00;;
38226;SDS011;24026;49.446;8.576;2023-06-22T04:39:59;162.38;;;148.68;;
38226;SDS011;24026;49.446;8.576;2023-06-22T04:42:19;160.70;;;147.20;;
38226;SDS011;24026;49.446;8.576;2023-06-22T04:44:40;160.77;;;147.32;;
38226;SDS011;24026;49.446;8.576;2023-06-22T04:47:02;162.23;;;148.63;;
38226;SDS011;24026;49.446;8.576;2023-06-22T04:49:23;163.95;;;150.15;;
38226;SDS011;24026;49.446;8.576;2023-06-22T04:51:52;162.35;;;148.90;;
38226;SDS011;24026;49.446;8.576;2023-06-22T04:54:15;161.77;;;148.13;;
38226;SDS011;24026;49.446;8.576;2023-06-22T04:56:39;162.02;;;148.45;;
38226;SDS011;24026;49.446;8.576;2023-06-22T04:59:00;161.52;;;148.02;;
38226;SDS011;24026;49.446;8.576;2023-06-22T05:01:21;163.77;;;150.23;;
38226;SDS011;24026;49.446;8.576;2023-06-22T05:03:44;163.02;;;149.43;;
38226;SDS011;24026;49.446;8.576;2023-06-22T05:06:04;162.80;;;149.00;;
38226;SDS011;24026;49.446;8.576;2023-06-22T05:08:25;165.40;;;151.40;;
38226;SDS011;24026;49.446;8.576;2023-06-22T05:10:46;162.57;;;148.98;;
38226;SDS011;24026;49.446;8.576;2023-06-22T05:13:06;165.60;;;151.57;;
38226;SDS011;24026;49.446;8.576;2023-06-22T05:15:27;164.23;;;150.43;;
38226;SDS011;24026;49.446;8.576;2023-06-22T05:17:50;166.82;;;152.85;;
38226;SDS011;24026;49.446;8.576;2023-06-22T05:20:11;165.80;;;151.40;;
38226;SDS011;24026;49.446;8.576;2023-06-22T05:22:32;170.63;;;154.85;;
38226;SDS011;24026;49.446;8.576;2023-06-22T05:24:53;168.60;;;152.02;;
38226;SDS011;24026;49.446;8.576;2023-06-22T05:27:13;165.63;;;150.38;;
38226;SDS011;24026;49.446;8.576;2023-06-22T05:29:34;161.77;;;147.48;;
38226;SDS011;24026;49.446;8.576;2023-06-22T05:31:56;162.32;;;147.73;;
38226;SDS011;24026;49.446;8.576;2023-06-22T05:34:16;163.32;;;149.20;;
38226;SDS011;24026;49.446;8.576;2023-06-22T05:36:37;163.10;;;148.40;;
38226;SDS011;24026;49.446;8.576;2023-06-22T05:38:58;166.98;;;152.57;;
38226;SDS011;24026;49.446;8.576;2023-06-22T05:41:18;168.80;;;154.38;;
38226;SDS011;24026;49.446;8.576;2023-06-22T05:43:39;170.80;;;155.70;;
38226;SDS011;24026;49.446;8.576;2023-06-22T05:46:01;168.07;;;153.32;;
38226;SDS011;24026;49.446;8.576;2023-06-22T05:48:22;168.90;;;154.25;;
38226;SDS011;24026;49.446;8.576;2023-06-22T05:50:44;167.13;;;152.60;;
38226;SDS011;24026;49.446;8.576;2023-06-22T05:53:04;167.65;;;153.18;;
38226;SDS011;24026;49.446;8.576;2023-06-22T05:55:26;171.07;;;156.27;;
38226;SDS011;24026;49.446;8.576;2023-06-22T05:57:47;163.80;;;149.65;;
38226;SDS011;24026;49.446;8.576;2023-06-22T06:00:09;168.80;;;154.65;;
38226;SDS011;24026;49.446;8.576;2023-06-22T06:02:31;168.88;;;154.57;;
38226;SDS011;24026;49.446;8.576;2023-06-22T06:04:54;167.25;;;152.93;;
38226;SDS011;24026;49.446;8.576;2023-06-22T06:07:16;167.98;;;154.07;;
38226;SDS011;24026;49.446;8.576;2023-06-22T06:09:38;169.30;;;155.10;;
38226;SDS011;24026;49.446;8.576;2023-06-22T06:11:59;170.48;;;156.23;;
38226;SDS011;24026;49.446;8.576;2023-06-22T06:14:19;166.50;;;152.45;;
38226;SDS011;24026;49.446;8.576;2023-06-22T06:16:40;166.73;;;152.40;;
38226;SDS011;24026;49.446;8.576;2023-06-22T06:19:01;170.50;;;156.18;;
38226;SDS011;24026;49.446;8.576;2023-06-22T06:21:22;166.68;;;151.60;;
38226;SDS011;24026;49.446;8.576;2023-06-22T06:23:42;171.20;;;156.43;;
38226;SDS011;24026;49.446;8.576;2023-06-22T06:26:03;166.93;;;152.65;;
38226;SDS011;24026;49.446;8.576;2023-06-22T06:28:27;165.00;;;151.02;;
38226;SDS011;24026;49.446;8.576;2023-06-22T06:30:47;166.13;;;151.23;;
38226;SDS011;24026;49.446;8.576;2023-06-22T06:33:08;164.65;;;150.73;;
38226;SDS011;24026;49.446;8.576;2023-06-22T06:35:29;162.90;;;149.15;;
38226;SDS011;24026;49.446;8.576;2023-06-22T06:37:49;165.25;;;150.93;;
38226;SDS011;24026;49.446;8.576;2023-06-22T06:40:11;164.57;;;150.38;;
38226;SDS011;24026;49.446;8.576;2023-06-22T06:42:32;165.60;;;151.48;;
38226;SDS011;24026;49.446;8.576;2023-06-22T06:44:53;165.50;;;151.80;;
38226;SDS011;24026;49.446;8.576;2023-06-22T06:47:13;165.98;;;152.15;;
38226;SDS011;24026;49.446;8.576;2023-06-22T06:49:34;170.00;;;156.02;;
38226;SDS011;24026;49.446;8.576;2023-06-22T06:51:54;166.82;;;152.98;;
38226;SDS011;24026;49.446;8.576;2023-06-22T06:54:15;168.93;;;155.00;;
38226;SDS011;24026;49.446;8.576;2023-06-22T06:56:36;167.27;;;153.50;;
38226;SDS011;24026;49.446;8.576;2023-06-22T06:58:57;167.55;;;153.40;;
38226;SDS011;24026;49.446;8.576;2023-06-22T07:01:18;168.07;;;153.88;;
38226;SDS011;24026;49.446;8.576;2023-06-22T07:03:41;167.25;;;153.30;;
38226;SDS011;24026;49.446;8.576;2023-06-22T07:06:02;167.23;;;153.48;;
38226;SDS011;24026;49.446;8.576;2023-06-22T07:08:24;166.70;;;152.93;;
38226;SDS011;24026;49.446;8.576;2023-06-22T07:10:45;168.18;;;154.30;;
38226;SDS011;24026;49.446;8.576;2023-06-22T07:13:06;168.13;;;154.20;;
38226;SDS011;24026;49.446;8.576;2023-06-22T07:15:30;163.75;;;150.27;;
38226;SDS011;24026;49.446;8.576;2023-06-22T07:17:53;160.23;;;146.57;;
38226;SDS011;24026;49.446;8.576;2023-06-22T07:20:13;161.18;;;147.45;;
38226;SDS011;24026;49.446;8.576;2023-06-22T07:22:35;160.90;;;147.40;;
38226;SDS011;24026;49.446;8.576;2023-06-22T07:24:55;160.85;;;147.25;;
38226;SDS011;24026;49.446;8.576;2023-06-22T07:27:16;162.40;;;148.80;;
38226;SDS011;24026;49.446;8.576;2023-06-22T07:29:39;162.82;;;149.32;;
38226;SDS011;24026;49.446;8.576;2023-06-22T07:32:00;160.30;;;146.90;;
38226;SDS011;24026;49.446;8.576;2023-06-22T07:34:24;161.13;;;147.35;;
38226;SDS011;24026;49.446;8.576;2023-06-22T07:36:46;162.05;;;148.32;;
38226;SDS011;24026;49.446;8.576;2023-06-22T07:39:06;160.80;;;147.10;;
38226;SDS011;24026;49.446;8.576;2023-06-22T07:41:27;161.30;;;147.65;;
38226;SDS011;24026;49.446;8.576;2023-06-22T07:43:47;162.05;;;148.02;;
38226;SDS011;24026;49.446;8.576;2023-06-22T07:46:08;163.95;;;149.85;;
38226;SDS011;24026;49.446;8.576;2023-06-22T07:48:28;164.90;;;150.63;;
38226;SDS011;24026;49.446;8.576;2023-06-22T07:50:49;162.43;;;148.77;;
38226;SDS011;24026;49.446;8.576;2023-06-22T07:53:09;168.00;;;154.10;;
38226;SDS011;24026;49.446;8.576;2023-06-22T07:55:30;166.27;;;152.27;;
38226;SDS011;24026;49.446;8.576;2023-06-22T07:57:50;167.07;;;153.25;;
38226;SDS011;24026;49.446;8.576;2023-06-22T08:00:12;165.55;;;151.68;;
38226;SDS011;24026;49.446;8.576;2023-06-22T08:02:36;166.98;;;153.00;;
38226;SDS011;24026;49.446;8.576;2023-06-22T08:04:56;170.63;;;156.73;;
38226;SDS011;24026;49.446;8.576;2023-06-22T08:07:16;168.35;;;154.55;;
38226;SDS011;24026;49.446;8.576;2023-06-22T08:09:45;169.77;;;155.73;;
38226;SDS011;24026;49.446;8.576;2023-06-22T08:12:09;171.15;;;157.23;;
38226;SDS011;24026;49.446;8.576;2023-06-22T08:14:31;169.13;;;154.20;;
38226;SDS011;24026;49.446;8.576;2023-06-22T08:16:51;174.90;;;159.50;;
38226;SDS011;24026;49.446;8.576;2023-06-22T08:19:12;176.60;;;161.13;;
38226;SDS011;24026;49.446;8.576;2023-06-22T08:21:32;173.93;;;158.77;;
38226;SDS011;24026;49.446;8.576;2023-06-22T08:23:53;173.77;;;158.32;;
38226;SDS011;24026;49.446;8.576;2023-06-22T08:26:14;170.45;;;155.70;;
38226;SDS011;24026;49.446;8.576;2023-06-22T08:28:34;174.35;;;158.88;;
38226;SDS011;24026;49.446;8.576;2023-06-22T08:30:55;172.93;;;157.82;;
38226;SDS011;24026;49.446;8.576;2023-06-22T08:33:15;172.77;;;157.85;;
38226;SDS011;24026;49.446;8.576;2023-06-22T08:35:36;172.63;;;157.70;;
38226;SDS011;24026;49.446;8.576;2023-06-22T08:37:57;173.43;;;159.00;;
38226;SDS011;24026;49.446;8.576;2023-06-22T08:40:18;173.05;;;158.70;;
38226;SDS011;24026;49.446;8.576;2023-06-22T08:42:40;171.90;;;157.68;;
38226;SDS011;24026;49.446;8.576;2023-06-22T08:45:00;171.80;;;157.60;;
38226;SDS011;24026;49.446;8.576;2023-06-22T08:47:21;170.98;;;156.52;;
38226;SDS011;24026;49.446;8.576;2023-06-22T08:49:42;172.60;;;158.38;;
38226;SDS011;24026;49.446;8.576;2023-06-22T08:52:03;171.50;;;157.40;;
38226;SDS011;24026;49.446;8.576;2023-06-22T08:54:23;171.38;;;157.18;;
38226;SDS011;24026;49.446;8.576;2023-06-22T08:56:44;173.25;;;159.02;;
38226;SDS011;24026;49.446;8.576;2023-06-22T08:59:04;175.63;;;161.30;;
38226;SDS011;24026;49.446;8.576;2023-06-22T09:01:28;169.85;;;155.65;;
38226;SDS011;24026;49.446;8.576;2023-06-22T09:03:49;171.88;;;157.88;;
38226;SDS011;24026;49.446;8.576;2023-06-22T09:06:15;172.75;;;158.75;;
38226;SDS011;24026;49.446;8.576;2023-06-22T09:08:36;172.38;;;158.07;;
38226;SDS011;24026;49.446;8.576;2023-06-22T09:10:56;171.38;;;157.45;;
38226;SDS011;24026;49.446;8.576;2023-06-22T09:13:17;171.68;;;157.73;;
38226;SDS011;24026;49.446;8.576;2023-06-22T09:15:38;171.38;;;157.48;;
38226;SDS011;24026;49.446;8.576;2023-06-22T09:17:58;172.50;;;158.48;;
38226;SDS011;24026;49.446;8.576;2023-06-22T09:20:19;173.48;;;159.27;;
38226;SDS011;24026;49.446;8.576;2023-06-22T09:22:39;174.38;;;160.30;;
38226;SDS011;24026;49.446;8.576;2023-06-22T09:25:00;172.35;;;158.18;;
38226;SDS011;24026;49.446;8.576;2023-06-22T09:27:23;172.00;;;158.18;;
38226;SDS011;24026;49.446;8.576;2023-06-22T09:29:43;172.15;;;158.35;;
38226;SDS011;24026;49.446;8.576;2023-06-22T09:32:03;172.10;;;157.90;;
38226;SDS011;24026;49.446;8.576;2023-06-22T09:34:24;174.25;;;160.23;;
38226;SDS011;24026;49.446;8.576;2023-06-22T09:36:45;165.27;;;151.70;;
38226;SDS011;24026;49.446;8.576;2023-06-22T09:39:05;173.15;;;159.18;;
38226;SDS011;24026;49.446;8.576;2023-06-22T09:41:26;175.18;;;161.15;;
38226;SDS011;24026;49.446;8.576;2023-06-22T09:43:47;170.88;;;156.60;;
38226;SDS011;24026;49.446;8.576;2023-06-22T09:46:08;171.70;;;157.60;;
38226;SDS011;24026;49.446;8.576;2023-06-22T09:48:29;172.70;;;158.43;;
38226;SDS011;24026;49.446;8.576;2023-06-22T09:50:50;174.90;;;160.80;;
38226;SDS011;24026;49.446;8.576;2023-06-22T09:53:11;173.88;;;159.82;;
38226;SDS011;24026;49.446;8.576;2023-06-22T09:55:31;176.55;;;161.95;;
38226;SDS011;24026;49.446;8.576;2023-06-22T09:57:52;178.73;;;164.05;;
38226;SDS011;24026;49.446;8.576;2023-06-22T10:00:13;177.18;;;162.90;;
38226;SDS011;24026;49.446;8.576;2023-06-22T10:02:34;180.80;;;165.77;;
38226;SDS011;24026;49.446;8.576;2023-06-22T10:04:55;179.32;;;164.73;;
38226;SDS011;24026;49.446;8.576;2023-06-22T10:07:16;179.13;;;164.55;;
38226;SDS011;24026;49.446;8.576;2023-06-22T10:09:37;180.77;;;166.07;;
38226;SDS011;24026;49.446;8.576;2023-06-22T10:11:59;179.95;;;164.85;;
38226;SDS011;24026;49.446;8.576;2023-06-22T10:14:19;174.75;;;160.18;;
38226;SDS011;24026;49.446;8.576;2023-06-22T10:16:40;176.80;;;162.00;;
38226;SDS011;24026;49.446;8.576;2023-06-22T10:19:01;171.43;;;157.38;;
38226;SDS011;24026;49.446;8.576;2023-06-22T10:21:22;172.80;;;158.38;;
38226;SDS011;24026;49.446;8.576;2023-06-22T10:23:42;172.20;;;158.07;;
38226;SDS011;24026;49.446;8.576;2023-06-22T10:26:03;172.82;;;158.82;;
38226;SDS011;24026;49.446;8.576;2023-06-22T10:28:23;172.07;;;157.90;;
38226;SDS011;24026;49.446;8.576;2023-06-22T10:30:43;172.15;;;158.00;;
38226;SDS011;24026;49.446;8.576;2023-06-22T10:33:04;175.13;;;160.70;;
38226;SDS011;24026;49.446;8.576;2023-06-22T10:35:24;166.95;;;153.13;;
38226;SDS011;24026;49.446;8.576;2023-06-22T10:37:45;171.30;;;157.32;;
38226;SDS011;24026;49.446;8.576;2023-06-22T10:40:06;171.50;;;157.52;;
38226;SDS011;24026;49.446;8.576;2023-06-22T10:42:29;170.50;;;156.52;;
38226;SDS011;24026;49.446;8.576;2023-06-22T10:44:51;168.65;;;154.85;;
38226;SDS011;24026;49.446;8.576;2023-06-22T10:47:12;168.95;;;155.18;;
38226;SDS011;24026;49.446;8.576;2023-06-22T10:49:34;169.27;;;155.32;;
38226;SDS011;24026;49.446;8.576;2023-06-22T10:51:56;172.45;;;158.30;;
38226;SDS011;24026;49.446;8.576;2023-06-22T10:54:16;171.95;;;157.98;;
38226;SDS011;24026;49.446;8.576;2023-06-22T10:56:39;177.27;;;163.25;;
38226;SDS011;24026;49.446;8.576;2023-06-22T10:59:00;176.30;;;161.98;;
38226;SDS011;24026;49.446;8.576;2023-06-22T11:01:21;178.90;;;164.52;;
38226;SDS011;24026;49.446;8.576;2023-06-22T11:03:42;176.18;;;161.98;;
38226;SDS011;24026;49.446;8.576;2023-06-22T11:06:03;175.57;;;161.27;;
38226;SDS011;24026;49.446;8.576;2023-06-22T11:08:24;176.57;;;162.57;;
38226;SDS011;24026;49.446;8.576;2023-06-22T11:10:44;178.23;;;164.23;;
38226;SDS011;24026;49.446;8.576;2023-06-22T11:13:06;176.60;;;162.50;;
38226;SDS011;24026;49.446;8.576;2023-06-22T11:15:29;179.85;;;165.07;;
38226;SDS011;24026;49.446;8.576;2023-06-22T11:17:50;184.20;;;169.50;;
38226;SDS011;24026;49.446;8.576;2023-06-22T11:20:11;179.90;;;165.30;;
38226;SDS011;24026;49.446;8.576;2023-06-22T11:22:32;178.73;;;164.50;;
38226;SDS011;24026;49.446;8.576;2023-06-22T11:24:53;180.52;;;166.07;;
38226;SDS011;24026;49.446;8.576;2023-06-22T11:27:15;181.55;;;166.85;;
38226;SDS011;24026;49.446;8.576;2023-06-22T11:29:35;185.10;;;169.68;;
38226;SDS011;24026;49.446;8.576;2023-06-22T11:31:56;186.07;;;171.02;;
38226;SDS011;24026;49.446;8.576;2023-06-22T11:34:16;178.98;;;164.68;;
38226;SDS011;24026;49.446;8.576;2023-06-22T11:36:37;181.40;;;166.52;;
38226;SDS011;24026;49.446;8.576;2023-06-22T11:38:59;179.57;;;164.77;;
38226;SDS011;24026;49.446;8.576;2023-06-22T11:41:20;182.38;;;167.50;;
38226;SDS011;24026;49.446;8.576;2023-06-22T11:43:42;182.00;;;165.95;;
38226;SDS011;24026;49.446;8.576;2023-06-22T11:46:02;183.90;;;168.10;;
38226;SDS011;24026;49.446;8.576;2023-06-22T11:48:24;185.90;;;169.57;;
38226;SDS011;24026;49.446;8.576;2023-06-22T11:50:45;184.38;;;167.77;;
38226;SDS011;24026;49.446;8.576;2023-06-22T11:53:05;185.57;;;167.35;;
38226;SDS011;24026;49.446;8.576;2023-06-22T11:55:25;180.82;;;163.98;;
38226;SDS011;24026;49.446;8.576;2023-06-22T11:57:53;179.75;;;162.13;;
38226;SDS011;24026;49.446;8.576;2023-06-22T12:00:15;187.88;;;164.90;;
38226;SDS011;24026;49.446;8.576;2023-06-22T12:02:37;179.88;;;164.23;;
38226;SDS011;24026;49.446;8.576;2023-06-22T12:04:58;176.85;;;161.95;;
38226;SDS011;24026;49.446;8.576;2023-06-22T12:07:18;178.32;;;161.75;;
38226;SDS011;24026;49.446;8.576;2023-06-22T12:09:38;164.63;;;149.15;;
38226;SDS011;24026;49.446;8.576;2023-06-22T12:11:59;157.70;;;143.75;;
38226;SDS011;24026;49.446;8.576;2023-06-22T12:14:19;157.75;;;143.55;;
38226;SDS011;24026;49.446;8.576;2023-06-22T12:16:39;162.60;;;147.82;;
38226;SDS011;24026;49.446;8.576;2023-06-22T12:19:00;159.38;;;145.48;;
38226;SDS011;24026;49.446;8.576;2023-06-22T12:21:20;156.68;;;143.07;;
38226;SDS011;24026;49.446;8.576;2023-06-22T12:23:42;157.10;;;144.50;;
38226;SDS011;24026;49.446;8.576;2023-06-22T12:26:03;157.95;;;144.95;;
38226;SDS011;24026;49.446;8.576;2023-06-22T12:28:23;156.80;;;144.05;;
38226;SDS011;24026;49.446;8.576;2023-06-22T12:30:44;156.85;;;144.15;;
38226;SDS011;24026;49.446;8.576;2023-06-22T12:33:04;160.52;;;147.65;;
38226;SDS011;24026;49.446;8.576;2023-06-22T12:35:26;159.05;;;146.55;;
38226;SDS011;24026;49.446;8.576;2023-06-22T12:37:46;158.85;;;146.35;;
38226;SDS011;24026;49.446;8.576;2023-06-22T12:40:07;160.07;;;147.45;;
38226;SDS011;24026;49.446;8.576;2023-06-22T12:42:28;157.52;;;145.00;;
38226;SDS011;24026;49.446;8.576;2023-06-22T12:44:48;159.25;;;146.65;;
38226;SDS011;24026;49.446;8.576;2023-06-22T12:47:09;157.52;;;144.73;;
38226;SDS011;24026;49.446;8.576;2023-06-22T12:49:29;156.80;;;144.55;;
38226;SDS011;24026;49.446;8.576;2023-06-22T12:51:50;158.40;;;146.00;;
38226;SDS011;24026;49.446;8.576;2023-06-22T12:54:10;157.60;;;145.25;;
38226;SDS011;24026;49.446;8.576;2023-06-22T12:56:31;156.05;;;143.60;;
38226;SDS011;24026;49.446;8.576;2023-06-22T12:58:51;156.23;;;143.85;;
38226;SDS011;24026;49.446;8.576;2023-06-22T13:01:12;154.88;;;142.57;;
38226;SDS011;24026;49.446;8.576;2023-06-22T13:03:33;159.10;;;146.45;;
38226;SDS011;24026;49.446;8.576;2023-06-22T13:05:53;159.00;;;145.90;;
38226;SDS011;24026;49.446;8.576;2023-06-22T13:08:14;159.70;;;147.00;;
38226;SDS011;24026;49.446;8.576;2023-06-22T13:10:35;159.50;;;147.00;;
38226;SDS011;24026;49.446;8.576;2023-06-22T13:12:55;161.25;;;148.32;;
38226;SDS011;24026;49.446;8.576;2023-06-22T13:15:20;164.75;;;151.48;;
38226;SDS011;24026;49.446;8.576;2023-06-22T13:17:40;166.55;;;153.05;;
38226;SDS011;24026;49.446;8.576;2023-06-22T13:20:01;166.18;;;152.48;;
38226;SDS011;24026;49.446;8.576;2023-06-22T13:22:32;166.93;;;153.02;;
38226;SDS011;24026;49.446;8.576;2023-06-22T13:24:59;167.10;;;153.52;;
38226;SDS011;24026;49.446;8.576;2023-06-22T13:27:22;165.63;;;152.02;;
38226;SDS011;24026;49.446;8.576;2023-06-22T13:29:43;169.98;;;156.30;;
38226;SDS011;24026;49.446;8.576;2023-06-22T13:32:03;172.63;;;158.57;;
38226;SDS011;24026;49.446;8.576;2023-06-22T13:34:24;167.00;;;153.77;;